Orchard, Iowa
Current Conditions -  °F | °C
As of 10:55 PM on Sunday 21 Dec 2014 (Local Time) from KCCY Reporting Station
Haze Haze  
Wind Chill: 28°   Ceiling: 600
Heat Index: 37°   Visibility: 5mi
Dew Point: 37°   Wind: 17mph
Humidity: 100%   Direction: 150°SSE
Pressure: 29.78"   Gusts: 23mph
Location:  43.23°N, 92.77°W
Report Text: KCCY 220455Z AUTO 15015G20KT 5SM BR OVC006 03/03 A2978 RMK AO2
Loading
Personal Weather Stations






























Interactive Weather Map New forecast layout! Learn more

10-Day Weather Forecast

Advertisements
Track Severe Weather on mobile